createdAt,value
2018-05-29T00:01:20.247Z,49.35
2018-05-29T00:03:47.866Z,48.71
2018-05-29T00:06:15.527Z,48.61
2018-05-29T00:08:43.464Z,48.87
2018-05-29T00:11:11.149Z,49.08
2018-05-29T00:13:38.778Z,48.80
2018-05-29T00:16:06.449Z,49.24
2018-05-29T00:18:34.078Z,49.20
2018-05-29T00:21:01.735Z,50.17
2018-05-29T00:23:29.361Z,50.45
2018-05-29T00:25:57.023Z,50.50
2018-05-29T00:28:24.628Z,50.89
2018-05-29T00:30:52.280Z,50.95
2018-05-29T00:33:19.886Z,50.80
2018-05-29T00:35:47.535Z,50.23
2018-05-29T00:38:15.147Z,50.37
2018-05-29T00:40:42.806Z,51.03
2018-05-29T00:43:10.419Z,52.04
2018-05-29T00:45:38.026Z,52.04
2018-05-29T00:48:05.681Z,50.82
2018-05-29T00:50:33.295Z,51.25
2018-05-29T00:53:00.959Z,51.94
2018-05-29T00:55:37.423Z,50.97
2018-05-29T00:58:05.074Z,51.75
2018-05-29T01:00:32.688Z,51.57
2018-05-29T01:03:00.344Z,51.74
2018-05-29T01:05:27.968Z,51.64
2018-05-29T01:07:55.626Z,51.99
2018-05-29T01:10:23.235Z,52.06
2018-05-29T01:12:50.901Z,51.78
2018-05-29T01:15:18.507Z,52.24
2018-05-29T01:17:46.167Z,52.09
2018-05-29T01:20:13.828Z,51.87
2018-05-29T01:22:41.486Z,52.17
2018-05-29T01:25:09.123Z,52.24
2018-05-29T01:27:36.775Z,51.97
2018-05-29T01:30:04.422Z,51.68
2018-05-29T01:32:32.079Z,51.87
2018-05-29T01:34:59.707Z,51.59
2018-05-29T01:37:27.382Z,51.57
2018-05-29T01:39:54.987Z,51.88
2018-05-29T01:42:22.648Z,52.23
2018-05-29T01:44:50.281Z,52.50
2018-05-29T01:47:17.955Z,53.11
2018-05-29T01:49:45.578Z,52.53
2018-05-29T01:52:13.247Z,53.11
2018-05-29T01:54:40.865Z,53.89
2018-05-29T01:57:08.515Z,53.60
2018-05-29T01:59:36.142Z,53.66
2018-05-29T02:02:03.836Z,53.43
2018-05-29T02:04:31.530Z,53.91
2018-05-29T02:06:59.136Z,54.66
2018-05-29T02:09:26.765Z,54.99
2018-05-29T02:11:54.423Z,54.65
2018-05-29T02:14:22.042Z,54.25
2018-05-29T02:16:49.686Z,54.42
2018-05-29T02:19:17.304Z,54.52
2018-05-29T02:21:44.979Z,54.43
2018-05-29T02:24:12.671Z,54.72
2018-05-29T02:26:40.322Z,54.66
2018-05-29T02:29:07.932Z,54.70
2018-05-29T02:31:35.614Z,54.73
2018-05-29T02:34:03.235Z,54.70
2018-05-29T02:36:30.955Z,54.84
2018-05-29T02:38:58.561Z,54.42
2018-05-29T02:41:26.208Z,55.79
2018-05-29T02:43:53.844Z,55.90
2018-05-29T02:46:21.500Z,55.91
2018-05-29T02:48:49.128Z,56.05
2018-05-29T02:51:16.803Z,55.81
2018-05-29T02:53:44.431Z,55.51
2018-05-29T02:56:12.085Z,55.38
2018-05-29T02:58:39.704Z,55.28
2018-05-29T03:01:07.335Z,55.45
2018-05-29T03:03:35.002Z,55.51
2018-05-29T03:06:02.624Z,55.12
2018-05-29T03:08:30.323Z,55.51
2018-05-29T03:10:57.942Z,55.35
2018-05-29T03:13:25.603Z,55.21
2018-05-29T03:15:53.207Z,55.16
2018-05-29T03:18:20.879Z,55.11
2018-05-29T03:20:48.491Z,55.55
2018-05-29T03:23:16.134Z,55.80
2018-05-29T03:25:43.751Z,55.99
2018-05-29T03:28:11.408Z,56.39
2018-05-29T03:30:39.032Z,56.35
2018-05-29T03:33:06.696Z,56.09
2018-05-29T03:35:34.319Z,56.15
2018-05-29T03:38:01.984Z,56.14
2018-05-29T03:40:29.619Z,56.40
2018-05-29T03:42:57.276Z,56.30
2018-05-29T03:45:24.903Z,57.25
2018-05-29T03:47:52.563Z,57.99
2018-05-29T03:50:20.203Z,57.45
2018-05-29T03:52:47.875Z,57.20
2018-05-29T03:55:15.525Z,57.24
2018-05-29T03:57:43.220Z,56.57
2018-05-29T04:00:10.867Z,56.65
2018-05-29T04:02:38.543Z,56.96
2018-05-29T04:05:06.164Z,56.53
2018-05-29T04:07:33.837Z,57.18
2018-05-29T04:10:01.548Z,58.05
2018-05-29T04:12:29.187Z,57.70
2018-05-29T04:14:56.815Z,57.94
2018-05-29T04:17:24.479Z,58.76
2018-05-29T04:19:52.197Z,57.81
2018-05-29T04:22:19.887Z,57.80
2018-05-29T04:24:47.510Z,57.61
2018-05-29T04:27:15.192Z,56.84
2018-05-29T04:29:42.835Z,56.18
2018-05-29T04:32:10.503Z,56.25
2018-05-29T04:34:38.123Z,56.28
2018-05-29T04:37:05.783Z,55.16
2018-05-29T04:39:33.397Z,54.98
2018-05-29T04:42:01.061Z,54.49
2018-05-29T04:44:28.691Z,54.85
2018-05-29T04:46:56.380Z,54.42
2018-05-29T04:49:24.063Z,53.73
2018-05-29T04:51:51.738Z,53.87
2018-05-29T04:54:19.371Z,53.83
2018-05-29T04:56:47.043Z,53.87
2018-05-29T04:59:14.690Z,54.69
2018-05-29T05:01:42.359Z,55.98
2018-05-29T05:04:09.971Z,55.40
2018-05-29T05:06:37.655Z,55.39
2018-05-29T05:09:06.203Z,55.28
2018-05-29T05:11:33.836Z,55.50
2018-05-29T05:14:01.532Z,56.17
2018-05-29T05:16:29.163Z,55.77
2018-05-29T05:18:57.143Z,55.44
2018-05-29T05:21:24.805Z,54.46
2018-05-29T05:23:52.484Z,54.23
2018-05-29T05:26:20.103Z,53.37
2018-05-29T05:28:47.775Z,53.38
2018-05-29T05:31:15.407Z,53.83
2018-05-29T05:33:43.391Z,53.69
2018-05-29T05:36:11.024Z,53.96
2018-05-29T05:38:38.687Z,55.31
2018-05-29T05:41:06.330Z,55.08
2018-05-29T05:43:33.998Z,54.02
2018-05-29T05:46:01.641Z,54.38
2018-05-29T05:48:29.322Z,54.50
2018-05-29T05:50:56.939Z,54.09
2018-05-29T05:53:24.620Z,53.06
2018-05-29T05:55:52.256Z,52.51
2018-05-29T05:58:19.927Z,51.79
2018-05-29T06:00:47.571Z,51.21
2018-05-29T06:03:15.234Z,50.46
2018-05-29T06:05:42.871Z,50.80
2018-05-29T06:08:10.535Z,50.58
2018-05-29T06:10:38.168Z,48.65
2018-05-29T06:13:05.823Z,48.12
2018-05-29T06:15:33.452Z,48.30
2018-05-29T06:18:01.128Z,49.35
2018-05-29T06:20:28.756Z,48.96
2018-05-29T06:22:56.402Z,48.96
2018-05-29T06:25:24.043Z,49.05
2018-05-29T06:27:51.721Z,47.97
2018-05-29T06:30:19.342Z,46.20
2018-05-29T06:32:47.051Z,45.39
2018-05-29T06:35:14.716Z,45.68
2018-05-29T06:37:42.373Z,45.83
2018-05-29T06:40:10.275Z,46.13
2018-05-29T06:42:37.945Z,45.41
2018-05-29T06:45:05.709Z,45.33
2018-05-29T06:47:33.267Z,44.19
2018-05-29T06:50:00.931Z,43.25
2018-05-29T06:52:28.596Z,42.36
2018-05-29T06:54:56.224Z,42.85
2018-05-29T06:57:23.887Z,42.07
2018-05-29T06:59:51.645Z,42.77
2018-05-29T07:02:19.696Z,43.85
2018-05-29T07:04:47.363Z,45.87
2018-05-29T07:07:15.043Z,47.75
2018-05-29T07:09:42.667Z,45.81
2018-05-29T07:12:10.326Z,45.40
2018-05-29T07:14:38.047Z,44.37
2018-05-29T07:17:05.651Z,45.82
2018-05-29T07:19:33.395Z,45.43
2018-05-29T07:22:01.034Z,45.61
2018-05-29T07:24:28.707Z,44.80
2018-05-29T07:26:56.344Z,45.01
2018-05-29T07:29:24.032Z,43.41
2018-05-29T07:31:51.663Z,43.66
2018-05-29T07:34:19.339Z,43.14
2018-05-29T07:36:46.968Z,42.81
2018-05-29T07:39:14.628Z,43.63
2018-05-29T07:41:42.296Z,42.25
2018-05-29T07:44:09.954Z,42.67
2018-05-29T07:46:37.563Z,44.41
2018-05-29T07:49:05.242Z,43.78
2018-05-29T07:51:33.207Z,44.68
2018-05-29T07:54:00.862Z,46.50
2018-05-29T07:56:28.483Z,46.10
2018-05-29T07:58:56.188Z,44.55
2018-05-29T08:01:23.794Z,44.08
2018-05-29T08:03:51.454Z,43.39
2018-05-29T08:06:19.160Z,43.50
2018-05-29T08:08:46.826Z,42.55
2018-05-29T08:11:14.450Z,41.52
2018-05-29T08:13:42.117Z,41.46
2018-05-29T08:16:09.759Z,41.20
2018-05-29T08:18:37.464Z,42.97
2018-05-29T08:21:05.126Z,44.00
2018-05-29T08:23:32.795Z,43.42
2018-05-29T08:26:01.360Z,42.25
2018-05-29T08:28:29.032Z,42.82
2018-05-29T08:30:57.570Z,41.53
2018-05-29T08:33:25.256Z,39.40
2018-05-29T08:35:52.880Z,41.80
2018-05-29T08:38:20.664Z,41.62
2018-05-29T08:40:48.428Z,40.50
2018-05-29T08:43:16.188Z,39.09
2018-05-29T08:45:43.914Z,37.63
2018-05-29T08:48:11.615Z,37.87
2018-05-29T08:50:39.257Z,36.58
2018-05-29T08:53:06.911Z,35.14
2018-05-29T08:55:34.550Z,36.75
2018-05-29T08:58:02.220Z,33.41
2018-05-29T09:00:29.839Z,34.19
2018-05-29T09:02:57.491Z,34.80
2018-05-29T09:05:25.111Z,35.35
2018-05-29T09:07:52.791Z,35.63
2018-05-29T09:10:20.432Z,35.40
2018-05-29T09:12:48.096Z,34.91
2018-05-29T09:15:17.541Z,35.14
2018-05-29T09:17:45.238Z,39.66
2018-05-29T09:20:12.871Z,39.24
2018-05-29T09:22:40.539Z,37.93
2018-05-29T09:25:08.217Z,36.47
2018-05-29T09:27:35.839Z,38.29
2018-05-29T09:30:03.539Z,38.35
2018-05-29T09:32:31.183Z,38.62
2018-05-29T09:34:59.041Z,39.98
2018-05-29T09:37:26.725Z,38.86
2018-05-29T09:39:55.089Z,37.50
2018-05-29T09:42:22.849Z,38.58
2018-05-29T09:44:50.552Z,38.14
2018-05-29T09:47:18.256Z,37.58
2018-05-29T09:49:45.924Z,37.62
2018-05-29T09:52:13.556Z,37.66
2018-05-29T09:54:41.224Z,37.73
2018-05-29T09:57:08.848Z,40.55
2018-05-29T09:59:36.575Z,40.38
2018-05-29T10:02:04.206Z,39.42
2018-05-29T10:04:31.877Z,41.88
2018-05-29T10:06:59.524Z,41.49
2018-05-29T10:09:27.190Z,38.93
2018-05-29T10:11:54.815Z,36.33
2018-05-29T10:14:22.476Z,35.78
2018-05-29T10:16:50.091Z,37.06
2018-05-29T10:19:17.804Z,35.12
2018-05-29T10:21:45.476Z,34.83
2018-05-29T10:24:13.134Z,36.74
2018-05-29T10:26:40.746Z,35.38
2018-05-29T10:29:08.429Z,36.29
2018-05-29T10:31:36.046Z,35.81
2018-05-29T10:34:03.726Z,33.95
2018-05-29T10:36:31.345Z,33.99
2018-05-29T10:38:59.007Z,32.98
2018-05-29T10:41:26.626Z,33.37
2018-05-29T10:43:54.296Z,36.13
2018-05-29T10:46:21.908Z,36.48
2018-05-29T10:48:49.554Z,36.86
2018-05-29T10:51:17.172Z,36.24
2018-05-29T10:53:44.916Z,35.51
2018-05-29T10:56:12.542Z,33.16
2018-05-29T10:58:40.198Z,35.58
2018-05-29T11:01:07.823Z,34.70
2018-05-29T11:03:35.475Z,35.11
2018-05-29T11:06:03.103Z,33.97
2018-05-29T11:08:30.766Z,35.83
2018-05-29T11:10:58.388Z,35.43
2018-05-29T11:13:26.038Z,37.57
2018-05-29T11:15:53.644Z,37.76
2018-05-29T11:18:21.296Z,37.18
2018-05-29T11:20:48.915Z,36.06
2018-05-29T11:23:16.560Z,36.16
2018-05-29T11:25:44.177Z,35.84
2018-05-29T11:28:11.835Z,34.66
2018-05-29T11:30:39.506Z,34.29
2018-05-29T11:33:07.137Z,34.16
2018-05-29T11:35:34.796Z,32.23
2018-05-29T11:38:02.432Z,30.48
2018-05-29T11:40:30.088Z,31.83
2018-05-29T11:42:57.705Z,33.55
2018-05-29T11:45:25.354Z,34.72
2018-05-29T11:47:52.979Z,34.33
2018-05-29T11:50:20.652Z,34.80
2018-05-29T11:52:48.271Z,34.36
2018-05-29T11:55:15.925Z,34.51
2018-05-29T11:57:43.531Z,33.46
2018-05-29T12:00:11.208Z,37.19
2018-05-29T12:02:38.838Z,37.59
2018-05-29T12:05:06.486Z,39.04
2018-05-29T12:07:34.232Z,37.64
2018-05-29T12:10:01.897Z,36.98
2018-05-29T12:12:29.515Z,37.56
2018-05-29T12:14:57.170Z,37.66
2018-05-29T12:17:24.796Z,37.44
2018-05-29T12:19:52.455Z,37.10
2018-05-29T12:22:20.107Z,37.52
2018-05-29T12:24:47.776Z,36.71
2018-05-29T12:27:15.399Z,38.19
2018-05-29T12:29:43.057Z,38.07
2018-05-29T12:32:10.675Z,38.00
2018-05-29T12:34:40.526Z,38.55
2018-05-29T12:37:08.349Z,38.66
2018-05-29T12:39:36.009Z,37.24
2018-05-29T12:42:03.635Z,36.58
2018-05-29T12:44:31.295Z,36.22
2018-05-29T12:46:58.905Z,35.46
2018-05-29T12:49:26.569Z,36.91
2018-05-29T12:51:54.184Z,36.51
2018-05-29T12:54:21.870Z,36.64
2018-05-29T12:56:49.487Z,35.80
2018-05-29T12:59:17.144Z,35.09
2018-05-29T13:01:44.813Z,34.54
2018-05-29T13:04:12.475Z,34.38
2018-05-29T13:06:40.107Z,34.00
2018-05-29T13:09:07.768Z,33.97
2018-05-29T13:11:35.404Z,34.90
2018-05-29T13:14:03.062Z,35.21
2018-05-29T13:16:30.679Z,36.16
2018-05-29T13:18:58.335Z,34.28
2018-05-29T13:21:25.954Z,35.46
2018-05-29T13:23:53.632Z,36.21
2018-05-29T13:26:22.023Z,37.99
2018-05-29T13:28:49.694Z,37.78
2018-05-29T13:31:17.307Z,37.72
2018-05-29T13:33:45.443Z,38.14
2018-05-29T13:36:13.052Z,36.04
2018-05-29T13:38:40.662Z,36.52
2018-05-29T13:41:08.314Z,36.18
2018-05-29T13:43:35.925Z,37.48
2018-05-29T13:46:03.607Z,38.31
2018-05-29T13:48:31.261Z,35.93
2018-05-29T13:50:58.904Z,39.50
2018-05-29T13:53:26.512Z,40.98
2018-05-29T13:55:54.162Z,40.48
2018-05-29T13:58:22.266Z,40.70
2018-05-29T14:00:49.911Z,40.19
2018-05-29T14:03:18.475Z,40.65
2018-05-29T14:05:46.135Z,40.24
2018-05-29T14:08:13.763Z,39.56
2018-05-29T14:10:41.468Z,40.26
2018-05-29T14:13:09.084Z,41.06
2018-05-29T14:15:36.738Z,40.34
2018-05-29T14:18:04.356Z,40.81
2018-05-29T14:20:32.019Z,40.91
2018-05-29T14:22:59.643Z,41.23
2018-05-29T14:25:27.343Z,41.68
2018-05-29T14:27:54.968Z,41.44
2018-05-29T14:30:22.627Z,41.80
2018-05-29T14:32:50.244Z,41.59
2018-05-29T14:35:17.890Z,42.35
2018-05-29T14:37:45.515Z,42.48
2018-05-29T14:40:13.177Z,43.28
2018-05-29T14:42:40.795Z,43.49
2018-05-29T14:45:08.446Z,43.64
2018-05-29T14:47:36.071Z,44.61
2018-05-29T14:50:03.734Z,43.24
2018-05-29T14:52:31.338Z,43.93
2018-05-29T14:54:58.983Z,43.93
2018-05-29T14:57:26.609Z,44.26
2018-05-29T14:59:55.135Z,43.66
2018-05-29T15:02:22.988Z,43.43
2018-05-29T15:04:50.672Z,44.58
2018-05-29T15:07:18.607Z,43.71
2018-05-29T15:09:48.023Z,43.13
2018-05-29T15:12:15.812Z,43.55
2018-05-29T15:14:43.463Z,43.82
2018-05-29T15:17:11.080Z,42.68
2018-05-29T15:19:39.696Z,42.47
2018-05-29T15:22:07.334Z,43.58
2018-05-29T15:24:34.991Z,43.56
2018-05-29T15:27:02.644Z,42.32
2018-05-29T15:29:30.299Z,42.30
2018-05-29T15:31:57.928Z,41.82
2018-05-29T15:34:25.601Z,41.82
2018-05-29T15:36:53.211Z,41.72
2018-05-29T15:39:20.871Z,40.86
2018-05-29T15:41:48.544Z,40.20
2018-05-29T15:44:16.217Z,40.12
2018-05-29T15:46:43.823Z,40.69
2018-05-29T15:49:11.430Z,41.74
2018-05-29T15:51:39.091Z,42.01
2018-05-29T15:54:06.708Z,41.44
2018-05-29T15:56:34.363Z,40.93
2018-05-29T15:59:01.974Z,41.15
2018-05-29T16:01:29.643Z,40.75
2018-05-29T16:03:57.247Z,41.16
2018-05-29T16:06:24.916Z,41.01
2018-05-29T16:08:52.547Z,40.73
2018-05-29T16:11:20.239Z,39.73
2018-05-29T16:13:47.908Z,38.95
2018-05-29T16:16:15.551Z,38.93
2018-05-29T16:18:43.165Z,39.54
2018-05-29T16:21:10.844Z,38.98
2018-05-29T16:23:38.467Z,38.76
2018-05-29T16:26:06.124Z,39.16
2018-05-29T16:28:33.733Z,37.70
2018-05-29T16:31:01.393Z,38.57
2018-05-29T16:33:29.035Z,38.53
2018-05-29T16:35:56.682Z,38.59
2018-05-29T16:38:24.302Z,39.28
2018-05-29T16:40:52.115Z,39.11
2018-05-29T16:43:19.723Z,38.65
2018-05-29T16:45:47.386Z,38.01
2018-05-29T16:48:15.011Z,38.53
2018-05-29T16:50:42.675Z,38.63
2018-05-29T16:53:10.307Z,39.27
2018-05-29T16:55:38.141Z,39.32
2018-05-29T16:58:05.771Z,39.02
2018-05-29T17:00:33.427Z,40.12
2018-05-29T17:03:01.043Z,40.03
2018-05-29T17:05:28.747Z,39.97
2018-05-29T17:07:56.412Z,40.02
2018-05-29T17:10:24.156Z,39.30
2018-05-29T17:12:51.795Z,38.53
2018-05-29T17:15:19.536Z,37.79
2018-05-29T17:17:48.199Z,36.97
2018-05-29T17:20:15.963Z,37.11
2018-05-29T17:22:43.611Z,37.71
2018-05-29T17:25:11.331Z,37.94
2018-05-29T17:27:38.934Z,38.28
2018-05-29T17:30:06.587Z,38.67
2018-05-29T17:32:34.226Z,39.26
2018-05-29T17:35:01.880Z,39.00
2018-05-29T17:37:29.502Z,39.06
2018-05-29T17:39:57.165Z,39.54
2018-05-29T17:42:24.787Z,39.73
2018-05-29T17:44:52.472Z,39.43
2018-05-29T17:47:20.091Z,39.48
2018-05-29T17:49:47.748Z,39.74
2018-05-29T17:52:15.423Z,39.94
2018-05-29T17:54:43.035Z,40.53
2018-05-29T17:57:10.702Z,40.13
2018-05-29T17:59:38.347Z,40.35
2018-05-29T18:02:06.113Z,40.49
2018-05-29T18:04:33.760Z,40.54
2018-05-29T18:07:01.424Z,40.62
2018-05-29T18:09:29.054Z,40.87
2018-05-29T18:11:58.563Z,41.13
2018-05-29T18:14:26.342Z,41.49
2018-05-29T18:16:54.108Z,41.71
2018-05-29T18:19:21.819Z,41.81
2018-05-29T18:21:49.626Z,41.88
2018-05-29T18:24:17.346Z,42.10
2018-05-29T18:26:45.155Z,42.14
2018-05-29T18:29:12.876Z,42.74
2018-05-29T18:31:40.667Z,42.38
2018-05-29T18:34:08.389Z,42.82
2018-05-29T18:36:36.150Z,43.19
2018-05-29T18:39:04.189Z,43.45
2018-05-29T18:41:31.991Z,43.17
2018-05-29T18:43:59.726Z,42.69
2018-05-29T18:46:27.515Z,42.61
2018-05-29T18:48:55.245Z,43.35
2018-05-29T18:51:23.013Z,43.74
2018-05-29T18:53:50.796Z,43.12
2018-05-29T18:56:18.568Z,43.39
2018-05-29T18:58:46.314Z,43.71
2018-05-29T19:01:14.104Z,43.59
2018-05-29T19:03:41.731Z,43.87
2018-05-29T19:06:09.394Z,43.83
2018-05-29T19:08:37.012Z,43.98
2018-05-29T19:11:04.760Z,44.29
2018-05-29T19:13:32.370Z,44.77
2018-05-29T19:16:00.019Z,44.42
2018-05-29T19:18:27.654Z,44.19
2018-05-29T19:20:55.303Z,44.45
2018-05-29T19:23:22.919Z,44.80
2018-05-29T19:25:50.575Z,45.48
2018-05-29T19:28:18.191Z,45.34
2018-05-29T19:30:45.838Z,45.50
2018-05-29T19:33:13.435Z,44.70
2018-05-29T19:35:41.092Z,44.95
2018-05-29T19:38:08.699Z,45.10
2018-05-29T19:40:36.342Z,45.78
2018-05-29T19:43:03.954Z,46.17
2018-05-29T19:45:31.780Z,46.99
2018-05-29T19:47:59.397Z,46.67
2018-05-29T19:50:27.048Z,47.39
2018-05-29T19:52:54.663Z,47.41
2018-05-29T19:55:22.326Z,47.24
2018-05-29T19:57:49.981Z,47.38
2018-05-29T20:00:17.656Z,47.47
2018-05-29T20:02:45.297Z,47.55
2018-05-29T20:05:12.907Z,47.99
2018-05-29T20:07:40.571Z,48.28
2018-05-29T20:10:08.194Z,48.58
2018-05-29T20:12:35.857Z,48.85
2018-05-29T20:15:03.482Z,48.92
2018-05-29T20:17:31.183Z,48.79
2018-05-29T20:19:58.902Z,48.98
2018-05-29T20:22:26.582Z,48.87
2018-05-29T20:24:54.204Z,49.22
2018-05-29T20:27:21.853Z,49.49
2018-05-29T20:29:49.463Z,49.31
2018-05-29T20:32:17.206Z,49.76
2018-05-29T20:34:44.920Z,49.75
2018-05-29T20:37:12.653Z,49.68
2018-05-29T20:39:40.304Z,49.67
2018-05-29T20:42:07.956Z,49.97
2018-05-29T20:44:35.595Z,50.06
2018-05-29T20:47:03.258Z,49.82
2018-05-29T20:49:30.872Z,49.79
2018-05-29T20:51:58.528Z,49.97
2018-05-29T20:54:26.143Z,50.73
2018-05-29T20:56:54.329Z,51.17
2018-05-29T20:59:21.983Z,51.27
2018-05-29T21:01:49.641Z,52.27
2018-05-29T21:04:17.257Z,52.48
2018-05-29T21:06:44.915Z,52.41
2018-05-29T21:09:12.561Z,52.51
2018-05-29T21:11:40.490Z,52.25
2018-05-29T21:14:08.095Z,51.51
2018-05-29T21:16:35.886Z,51.46
2018-05-29T21:19:03.503Z,51.39
2018-05-29T21:21:31.937Z,51.29
2018-05-29T21:23:59.665Z,51.02
2018-05-29T21:26:27.335Z,50.60
2018-05-29T21:28:54.995Z,50.51
2018-05-29T21:31:22.656Z,50.36
2018-05-29T21:33:50.287Z,50.08
2018-05-29T21:36:17.952Z,49.63
2018-05-29T21:38:45.587Z,50.71
2018-05-29T21:41:13.251Z,51.30
2018-05-29T21:43:40.874Z,51.84
2018-05-29T21:46:08.531Z,51.75
2018-05-29T21:48:36.157Z,51.70
2018-05-29T21:51:03.815Z,51.71
2018-05-29T21:53:31.512Z,51.73
2018-05-29T21:55:59.176Z,51.33
2018-05-29T21:58:26.787Z,51.73
2018-05-29T22:00:54.451Z,51.11
2018-05-29T22:03:22.081Z,50.99
2018-05-29T22:05:49.739Z,50.23
2018-05-29T22:08:17.372Z,50.44
2018-05-29T22:10:45.003Z,50.63
2018-05-29T22:13:12.653Z,50.62
2018-05-29T22:15:40.268Z,50.22
2018-05-29T22:18:07.930Z,50.53
2018-05-29T22:20:35.549Z,50.95
2018-05-29T22:23:06.951Z,51.25
2018-05-29T22:25:34.573Z,51.40
2018-05-29T22:28:02.252Z,51.24
2018-05-29T22:30:29.915Z,51.28
2018-05-29T22:32:57.575Z,50.83
2018-05-29T22:35:25.192Z,50.92
2018-05-29T22:37:52.888Z,50.87
2018-05-29T22:40:20.512Z,50.81
2018-05-29T22:42:48.177Z,50.58
2018-05-29T22:45:15.791Z,50.57
2018-05-29T22:47:43.462Z,50.53
2018-05-29T22:50:11.069Z,50.71
2018-05-29T22:52:38.731Z,51.15
2018-05-29T22:55:06.374Z,51.75
2018-05-29T22:57:34.023Z,51.63
2018-05-29T23:00:01.631Z,52.12
2018-05-29T23:02:29.331Z,51.70
2018-05-29T23:04:56.946Z,51.30
2018-05-29T23:07:24.623Z,51.59
2018-05-29T23:09:52.263Z,51.94
2018-05-29T23:12:19.932Z,52.00
2018-05-29T23:14:47.634Z,52.97
2018-05-29T23:17:15.292Z,53.24
2018-05-29T23:19:42.903Z,52.57
2018-05-29T23:22:10.630Z,53.18
2018-05-29T23:24:38.270Z,53.47
2018-05-29T23:27:05.935Z,52.71
2018-05-29T23:29:33.557Z,53.59
2018-05-29T23:32:01.216Z,53.70
2018-05-29T23:34:28.831Z,53.59
2018-05-29T23:36:56.495Z,53.93
2018-05-29T23:39:24.124Z,55.67
2018-05-29T23:41:51.800Z,55.53
2018-05-29T23:44:19.421Z,55.66
2018-05-29T23:46:47.100Z,55.68
2018-05-29T23:49:14.730Z,55.77
2018-05-29T23:51:42.404Z,55.64
2018-05-29T23:54:10.019Z,56.07
2018-05-29T23:56:37.672Z,55.97
2018-05-29T23:59:05.302Z,55.67
